Melanie-h+3barge — KVB — position and weather

sailwx.info

Track history (hours):
 
Tides and Currents Weather Stations Pressure Air Temp Water Temp Dewpoint Dewpoint Depression Visibility Wind Speed Wind Dir Waves Ship Positions

Melanie-h+3barge

Last reported at 2018-Jul-12 05:58 UTC. Time now 2018-Jul-22 08:07 UTC.
Position N 46°01' E 018°41'.
Warning: this ship's position is 10 days out of date.

Length 172 m; draft 2.1 m.

Type: Ship. MMSI: 243071713.

Date/timePositionNaut miles runAvg speedWind from/ knotsBaromVisibWave heightAir tempDewpointWater temp
2018-Jul-12 05:58N 46°01' E 018°41'0 0.0
2018-Jul-12 05:25N 46°01' E 018°41'0 0.0
2018-Jul-12 04:58N 46°01' E 018°41'0 0.0
2018-Jul-12 02:58N 46°01' E 018°41'4 1.0
2018-Jul-11 23:10N 45°58' E 018°45'1 4.4
2018-Jul-11 22:50N 45°57' E 018°46'2 4.5
2018-Jul-11 22:23N 45°55' E 018°48'2 5.0
2018-Jul-11 22:00N 45°54' E 018°50'2 3.8
2018-Jul-11 21:30N 45°52' E 018°51'2 3.2
2018-Jul-11 21:00N 45°50' E 018°51'0 0.1
2018-Jul-11 20:22N 45°50' E 018°51'0 0.0
2018-Jul-11 20:00N 45°50' E 018°51'0 0.0
2018-Jul-11 19:27N 45°50' E 018°51'0 0.0
2018-Jul-11 18:59N 45°50' E 018°51'0 0.0
2018-Jul-11 18:29N 45°50' E 018°51'0 0.1
2018-Jul-11 18:00N 45°50' E 018°51'2 4.0
2018-Jul-11 17:30N 45°48' E 018°51'2 3.6
2018-Jul-11 17:01N 45°47' E 018°53'2 3.7
2018-Jul-11 16:31N 45°45' E 018°54'2 4.2
2018-Jul-11 16:01N 45°43' E 018°54'2 4.1
2018-Jul-11 15:31N 45°41' E 018°55'2 4.1
2018-Jul-11 15:01N 45°40' E 018°58'2 3.7
2018-Jul-11 14:31N 45°39' E 018°57'2 4.1
2018-Jul-11 14:01N 45°37' E 018°55'2 3.6
2018-Jul-11 13:31N 45°35' E 018°54'2 3.7
2018-Jul-11 13:01N 45°34' E 018°53'2 3.9
2018-Jul-11 12:30N 45°33' E 018°56'2 3.6
2018-Jul-11 12:00N 45°32' E 018°58'2 3.7
2018-Jul-11 11:31N 45°33' E 019°00'1 2.5
2018-Jul-11 11:01N 45°32' E 019°02'1 2.2
2018-Jul-11 10:30N 45°32' E 019°03'2 3.2
2018-Jul-11 10:01N 45°31' E 019°05'2 3.3
2018-Jul-11 09:30N 45°30' E 019°06'2 4.0
2018-Jul-11 09:00N 45°29' E 019°03'2 3.9
2018-Jul-11 08:31N 45°30' E 019°00'2 3.7
2018-Jul-11 08:00N 45°28' E 018°59'2 3.8
2018-Jul-11 07:31N 45°26' E 018°60'2 3.8
2018-Jul-11 07:01N 45°25' E 019°02'2 3.4
2018-Jul-11 06:31N 45°24' E 018°60'2 3.4
2018-Jul-11 06:01N 45°23' E 018°58'2 4.0
2018-Jul-11 05:30N 45°21' E 019°00'2 3.9
2018-Jul-11 04:57N 45°21' E 019°03'2 4.0
2018-Jul-11 04:30N 45°20' E 019°06'2 4.1
2018-Jul-11 04:01N 45°18' E 019°06'2 4.1
2018-Jul-11 03:31N 45°17' E 019°08'2 4.2
2018-Jul-11 03:01N 45°16' E 019°11'2 4.1
2018-Jul-11 02:30N 45°15' E 019°14'2 3.5
2018-Jul-11 02:01N 45°14' E 019°16'2 4.3
2018-Jul-11 01:31N 45°14' E 019°19'2 4.3
2018-Jul-11 01:00N 45°14' E 019°22'2 4.4
2018-Jul-11 00:31N 45°14' E 019°25'2 3.1
2018-Jul-11 00:00N 45°14' E 019°27'3 4.0
2018-Jul-10 23:20N 45°15' E 019°31'1 3.7
2018-Jul-10 22:57N 45°15' E 019°33'2 3.9
2018-Jul-10 22:28N 45°13' E 019°34'2 3.3
2018-Jul-10 21:50N 45°13' E 019°37'1 3.9
2018-Jul-10 21:31N 45°13' E 019°39'2 3.9
2018-Jul-10 21:01N 45°14' E 019°41'1 1.2
2018-Jul-10 20:31N 45°14' E 019°42'1 1.7
2018-Jul-10 20:01N 45°14' E 019°43'3 6.4
2018-Jul-10 19:31N 45°13' E 019°48'3 5.8
2018-Jul-10 19:01N 45°15' E 019°52'1 1.1
2018-Jul-10 18:31N 45°15' E 019°51'4 7.6
2018-Jul-10 18:01N 45°14' E 019°47'3 6.3
2018-Jul-10 17:30N 45°14' E 019°42'0 0.0
2018-Jul-10 17:01N 45°14' E 019°42'1 0.0
2018-Jul-08 16:06N 45°13' E 019°42'1 0.0
2018-Jul-07 11:07N 45°14' E 019°43'0 0.4
2018-Jul-07 10:18N 45°14' E 019°43'8 0.7
2018-Jul-06 22:08N 45°14' E 019°55'1 3.7
2018-Jul-06 21:52N 45°13' E 019°56'1 3.8
2018-Jul-06 21:31N 45°12' E 019°57'2 3.9
2018-Jul-06 21:01N 45°11' E 019°59'2 3.9
2018-Jul-06 20:30N 45°10' E 020°02'4 3.6
2018-Jul-06 19:21N 45°10' E 020°07'2 3.6
2018-Jul-06 18:51N 45°11' E 020°10'1 3.6
2018-Jul-06 18:30N 45°11' E 020°11'2 3.6
2018-Jul-06 18:01N 45°10' E 020°14'2 3.8
2018-Jul-06 17:30N 45°09' E 020°16'2 3.8
2018-Jul-06 17:01N 45°07' E 020°17'2 3.9
2018-Jul-06 16:30N 45°05' E 020°19'2 3.6
2018-Jul-06 16:00N 45°04' E 020°20'2 4.0
2018-Jul-06 15:31N 45°02' E 020°22'2 3.7
2018-Jul-06 15:01N 45°01' E 020°22'2 3.7
2018-Jul-06 14:30N 44°60' E 020°19'2 3.8
2018-Jul-06 14:01N 44°59' E 020°17'2 3.9
2018-Jul-06 13:31N 44°57' E 020°18'2 4.0
2018-Jul-06 13:01N 44°55' E 020°20'2 4.1
2018-Jul-06 12:30N 44°53' E 020°21'2 4.1
2018-Jul-06 12:00N 44°52' E 020°23'2 4.0
2018-Jul-06 11:31N 44°51' E 020°26'2 4.3
2018-Jul-06 11:01N 44°50' E 020°28'1 1.1
2018-Jul-06 10:30N 44°50' E 020°29'1 1.0
2018-Jul-06 10:01N 44°50' E 020°28'0 0.0
2018-Jul-06 09:31N 44°50' E 020°28'0 0.0
2018-Jul-06 09:01N 44°50' E 020°28'0 0.0
2018-Jul-06 08:31N 44°50' E 020°28'0 0.5
2018-Jul-06 08:01N 44°50' E 020°29'0 0.0
2018-Jul-06 07:31N 44°50' E 020°29'0 0.0
2018-Jul-06 07:01N 44°50' E 020°29'0 0.0
2018-Jul-06 06:31N 44°50' E 020°29'0 0.0
2018-Jul-06 06:01N 44°50' E 020°29'0 0.0
2018-Jul-06 05:31N 44°50' E 020°29'0 0.0
2018-Jul-06 05:01N 44°50' E 020°29'0 0.6
2018-Jul-06 04:31N 44°50' E 020°29'1 2.3
2018-Jul-06 04:01N 44°50' E 020°31'2 4.2
2018-Jul-06 03:31N 44°51' E 020°33'2 4.0
2018-Jul-06 03:01N 44°51' E 020°36'2 3.8
2018-Jul-06 02:31N 44°51' E 020°38'2 3.8
2018-Jul-06 02:00N 44°49' E 020°38'2 4.3
2018-Jul-06 01:29N 44°46' E 020°38'2 4.2
2018-Jul-06 01:00N 44°45' E 020°39'4 4.2
2018-Jul-06 00:08N 44°42' E 020°43'1 4.3
2018-Jul-06 00:00N 44°41' E 020°43'2 4.1
2018-Jul-05 23:30N 44°40' E 020°45'2 4.1
2018-Jul-05 23:00N 44°39' E 020°48'2 4.3
2018-Jul-05 22:30N 44°39' E 020°51'2 4.4
2018-Jul-05 22:00N 44°40' E 020°54'2 4.4
2018-Jul-05 21:30N 44°41' E 020°56'2 4.5
2018-Jul-05 21:01N 44°43' E 020°59'2 4.2
2018-Jul-05 20:31N 44°43' E 021°02'2 4.3
2018-Jul-05 20:01N 44°43' E 021°05'2 4.4
2018-Jul-05 19:30N 44°44' E 021°07'2 4.3
2018-Jul-05 19:01N 44°45' E 021°10'2 4.1
2018-Jul-05 18:29N 44°46' E 021°12'9 3.7
2018-Jul-05 16:09N 44°47' E 021°25'1 4.6
2018-Jul-05 15:57N 44°46' E 021°26'3 0.8
2018-Jul-05 11:47N 44°46' E 021°31'4 3.3
2018-Jul-05 10:43N 44°45' E 021°36'1 4.4
2018-Jul-05 10:30N 44°44' E 021°36'4 4.1
2018-Jul-05 09:28N 44°41' E 021°40'2 4.0
2018-Jul-05 09:00N 44°40' E 021°42'14 4.0
2018-Jul-05 05:36N 44°36' E 022°01'0 4.6
2018-Jul-05 05:30N 44°36' E 022°01'2 4.7
2018-Jul-05 05:00N 44°34' E 022°02'3 4.9
2018-Jul-05 04:23N 44°31' E 022°04'2 5.0
2018-Jul-05 04:01N 44°30' E 022°05'3 5.1
2018-Jul-05 03:30N 44°28' E 022°09'2 4.7
2018-Jul-05 03:00N 44°29' E 022°11'  
Track history (hours):
 
Tides and Currents Weather Stations Pressure Air Temp Water Temp Dewpoint Dewpoint Depression Visibility Wind Speed Wind Dir Waves Ship Positions

Melanie-h+3barge

Last reported at 2018-Jul-12 05:58 UTC. Time now 2018-Jul-22 08:08 UTC.
Position N 46°01' E 018°41'.
Warning: this ship's position is 10 days out of date.

Length 172 m; draft 2.1 m.

Type: Ship. MMSI: 243071713.

Date/timePositionNaut miles runAvg speedWind from/ knotsBaromVisibWave heightAir tempDewpointWater temp
2018-Jul-12 05:58N 46°01' E 018°41'0 0.0
2018-Jul-12 05:25N 46°01' E 018°41'0 0.0
2018-Jul-12 04:58N 46°01' E 018°41'0 0.0
2018-Jul-12 02:58N 46°01' E 018°41'4 1.0
2018-Jul-11 23:10N 45°58' E 018°45'1 4.4
2018-Jul-11 22:50N 45°57' E 018°46'2 4.5
2018-Jul-11 22:23N 45°55' E 018°48'2 5.0
2018-Jul-11 22:00N 45°54' E 018°50'2 3.8
2018-Jul-11 21:30N 45°52' E 018°51'2 3.2
2018-Jul-11 21:00N 45°50' E 018°51'0 0.1
2018-Jul-11 20:22N 45°50' E 018°51'0 0.0
2018-Jul-11 20:00N 45°50' E 018°51'0 0.0
2018-Jul-11 19:27N 45°50' E 018°51'0 0.0
2018-Jul-11 18:59N 45°50' E 018°51'0 0.0
2018-Jul-11 18:29N 45°50' E 018°51'0 0.1
2018-Jul-11 18:00N 45°50' E 018°51'2 4.0
2018-Jul-11 17:30N 45°48' E 018°51'2 3.6
2018-Jul-11 17:01N 45°47' E 018°53'2 3.7
2018-Jul-11 16:31N 45°45' E 018°54'2 4.2
2018-Jul-11 16:01N 45°43' E 018°54'2 4.1
2018-Jul-11 15:31N 45°41' E 018°55'2 4.1
2018-Jul-11 15:01N 45°40' E 018°58'2 3.7
2018-Jul-11 14:31N 45°39' E 018°57'2 4.1
2018-Jul-11 14:01N 45°37' E 018°55'2 3.6
2018-Jul-11 13:31N 45°35' E 018°54'2 3.7
2018-Jul-11 13:01N 45°34' E 018°53'2 3.9
2018-Jul-11 12:30N 45°33' E 018°56'2 3.6
2018-Jul-11 12:00N 45°32' E 018°58'2 3.7
2018-Jul-11 11:31N 45°33' E 019°00'1 2.5
2018-Jul-11 11:01N 45°32' E 019°02'1 2.2
2018-Jul-11 10:30N 45°32' E 019°03'2 3.2
2018-Jul-11 10:01N 45°31' E 019°05'2 3.3
2018-Jul-11 09:30N 45°30' E 019°06'2 4.0
2018-Jul-11 09:00N 45°29' E 019°03'2 3.9
2018-Jul-11 08:31N 45°30' E 019°00'2 3.7
2018-Jul-11 08:00N 45°28' E 018°59'2 3.8
2018-Jul-11 07:31N 45°26' E 018°60'2 3.8
2018-Jul-11 07:01N 45°25' E 019°02'2 3.4
2018-Jul-11 06:31N 45°24' E 018°60'2 3.4
2018-Jul-11 06:01N 45°23' E 018°58'2 4.0
2018-Jul-11 05:30N 45°21' E 019°00'2 3.9
2018-Jul-11 04:57N 45°21' E 019°03'2 4.0
2018-Jul-11 04:30N 45°20' E 019°06'2 4.1
2018-Jul-11 04:01N 45°18' E 019°06'2 4.1
2018-Jul-11 03:31N 45°17' E 019°08'2 4.2
2018-Jul-11 03:01N 45°16' E 019°11'2 4.1
2018-Jul-11 02:30N 45°15' E 019°14'2 3.5
2018-Jul-11 02:01N 45°14' E 019°16'2 4.3
2018-Jul-11 01:31N 45°14' E 019°19'2 4.3
2018-Jul-11 01:00N 45°14' E 019°22'2 4.4
2018-Jul-11 00:31N 45°14' E 019°25'2 3.1
2018-Jul-11 00:00N 45°14' E 019°27'3 4.0
2018-Jul-10 23:20N 45°15' E 019°31'1 3.7
2018-Jul-10 22:57N 45°15' E 019°33'2 3.9
2018-Jul-10 22:28N 45°13' E 019°34'2 3.3
2018-Jul-10 21:50N 45°13' E 019°37'1 3.9
2018-Jul-10 21:31N 45°13' E 019°39'2 3.9
2018-Jul-10 21:01N 45°14' E 019°41'1 1.2
2018-Jul-10 20:31N 45°14' E 019°42'1 1.7
2018-Jul-10 20:01N 45°14' E 019°43'3 6.4
2018-Jul-10 19:31N 45°13' E 019°48'3 5.8
2018-Jul-10 19:01N 45°15' E 019°52'1 1.1
2018-Jul-10 18:31N 45°15' E 019°51'4 7.6
2018-Jul-10 18:01N 45°14' E 019°47'3 6.3
2018-Jul-10 17:30N 45°14' E 019°42'0 0.0
2018-Jul-10 17:01N 45°14' E 019°42'1 0.0
2018-Jul-08 16:06N 45°13' E 019°42'1 0.0
2018-Jul-07 11:07N 45°14' E 019°43'0 0.4
2018-Jul-07 10:18N 45°14' E 019°43'8 0.7
2018-Jul-06 22:08N 45°14' E 019°55'1 3.7
2018-Jul-06 21:52N 45°13' E 019°56'1 3.8
2018-Jul-06 21:31N 45°12' E 019°57'2 3.9
2018-Jul-06 21:01N 45°11' E 019°59'2 3.9
2018-Jul-06 20:30N 45°10' E 020°02'4 3.6
2018-Jul-06 19:21N 45°10' E 020°07'2 3.6
2018-Jul-06 18:51N 45°11' E 020°10'1 3.6
2018-Jul-06 18:30N 45°11' E 020°11'2 3.6
2018-Jul-06 18:01N 45°10' E 020°14'2 3.8
2018-Jul-06 17:30N 45°09' E 020°16'2 3.8
2018-Jul-06 17:01N 45°07' E 020°17'2 3.9
2018-Jul-06 16:30N 45°05' E 020°19'2 3.6
2018-Jul-06 16:00N 45°04' E 020°20'2 4.0
2018-Jul-06 15:31N 45°02' E 020°22'2 3.7
2018-Jul-06 15:01N 45°01' E 020°22'2 3.7
2018-Jul-06 14:30N 44°60' E 020°19'2 3.8
2018-Jul-06 14:01N 44°59' E 020°17'2 3.9
2018-Jul-06 13:31N 44°57' E 020°18'2 4.0
2018-Jul-06 13:01N 44°55' E 020°20'2 4.1
2018-Jul-06 12:30N 44°53' E 020°21'2 4.1
2018-Jul-06 12:00N 44°52' E 020°23'2 4.0
2018-Jul-06 11:31N 44°51' E 020°26'2 4.3
2018-Jul-06 11:01N 44°50' E 020°28'1 1.1
2018-Jul-06 10:30N 44°50' E 020°29'1 1.0
2018-Jul-06 10:01N 44°50' E 020°28'0 0.0
2018-Jul-06 09:31N 44°50' E 020°28'0 0.0
2018-Jul-06 09:01N 44°50' E 020°28'0 0.0
2018-Jul-06 08:31N 44°50' E 020°28'0 0.5
2018-Jul-06 08:01N 44°50' E 020°29'0 0.0
2018-Jul-06 07:31N 44°50' E 020°29'0 0.0
2018-Jul-06 07:01N 44°50' E 020°29'0 0.0
2018-Jul-06 06:31N 44°50' E 020°29'0 0.0
2018-Jul-06 06:01N 44°50' E 020°29'0 0.0
2018-Jul-06 05:31N 44°50' E 020°29'0 0.0
2018-Jul-06 05:01N 44°50' E 020°29'0 0.6
2018-Jul-06 04:31N 44°50' E 020°29'1 2.3
2018-Jul-06 04:01N 44°50' E 020°31'2 4.2
2018-Jul-06 03:31N 44°51' E 020°33'2 4.0
2018-Jul-06 03:01N 44°51' E 020°36'2 3.8
2018-Jul-06 02:31N 44°51' E 020°38'2 3.8
2018-Jul-06 02:00N 44°49' E 020°38'2 4.3
2018-Jul-06 01:29N 44°46' E 020°38'2 4.2
2018-Jul-06 01:00N 44°45' E 020°39'4 4.2
2018-Jul-06 00:08N 44°42' E 020°43'1 4.3
2018-Jul-06 00:00N 44°41' E 020°43'2 4.1
2018-Jul-05 23:30N 44°40' E 020°45'2 4.1
2018-Jul-05 23:00N 44°39' E 020°48'2 4.3
2018-Jul-05 22:30N 44°39' E 020°51'2 4.4
2018-Jul-05 22:00N 44°40' E 020°54'2 4.4
2018-Jul-05 21:30N 44°41' E 020°56'2 4.5
2018-Jul-05 21:01N 44°43' E 020°59'2 4.2
2018-Jul-05 20:31N 44°43' E 021°02'2 4.3
2018-Jul-05 20:01N 44°43' E 021°05'2 4.4
2018-Jul-05 19:30N 44°44' E 021°07'2 4.3
2018-Jul-05 19:01N 44°45' E 021°10'2 4.1
2018-Jul-05 18:29N 44°46' E 021°12'9 3.7
2018-Jul-05 16:09N 44°47' E 021°25'1 4.6
2018-Jul-05 15:57N 44°46' E 021°26'3 0.8
2018-Jul-05 11:47N 44°46' E 021°31'4 3.3
2018-Jul-05 10:43N 44°45' E 021°36'1 4.4
2018-Jul-05 10:30N 44°44' E 021°36'4 4.1
2018-Jul-05 09:28N 44°41' E 021°40'2 4.0
2018-Jul-05 09:00N 44°40' E 021°42'14 4.0
2018-Jul-05 05:36N 44°36' E 022°01'0 4.6
2018-Jul-05 05:30N 44°36' E 022°01'2 4.7
2018-Jul-05 05:00N 44°34' E 022°02'3 4.9
2018-Jul-05 04:23N 44°31' E 022°04'2 5.0
2018-Jul-05 04:01N 44°30' E 022°05'3 5.1
2018-Jul-05 03:30N 44°28' E 022°09'2 4.7
2018-Jul-05 03:00N 44°29' E 022°11'  

Dump ship's entire track history